PKMJ

Marshall Islands International Airport

Majuro Atoll, , Marshall Islands
PKMJ 200534Z 2006/2106 09011KT P6SM VCSH SCT014 SCT050 BKN120
Issued Valid From Valid To
Jan-20 @ 05:34 UTC
(6 hours ago)
Jan-20 @ 06:00 UTC
(6 hours ago)
Jan-21 @ 06:00 UTC
(in 18 hours)
Jan-20 @ 06:00 to Jan-21 @ 06:00
PKMJ 200534Z 2006/2106 09011KT P6SM VCSH SCT014 SCT050 BKN120
Wind Visibility Clouds
90° at 11 knots 10,000+ meters
  • Scattered at 1,400' AGL
  • Scattered at 5,000' AGL
  • Broken at 12,000' AGL
PKMJ 200534Z 2006/2106 09011KT P6SM VCSH SCT014 SCT050 BKN120
Issued Jan-20 @ 05:34 UTC
(6 hours ago)
Valid From Jan-20 @ 06:00 UTC
(6 hours ago)
Valid To Jan-21 @ 06:00 UTC
(in 18 hours)
Jan-20 @ 06:00 - Jan-21 @ 06:00
Wind Visibility
90° at 11 knots 10,000+ meters
Clouds
  • Scattered at 1,400' AGL
  • Scattered at 5,000' AGL
  • Broken at 12,000' AGL